createdAt,value
2019-05-18T00:01:44.590Z,10.07
2019-05-18T00:04:14.300Z,10.40
2019-05-18T00:06:46.415Z,9.93
2019-05-18T00:09:16.089Z,10.50
2019-05-18T00:11:45.854Z,10.93
2019-05-18T00:14:15.568Z,13.00
2019-05-18T00:16:46.144Z,10.40
2019-05-18T00:19:16.079Z,10.57
2019-05-18T00:21:46.718Z,10.23
2019-05-18T00:24:16.450Z,10.13
2019-05-18T00:26:46.210Z,12.23
2019-05-18T00:29:15.967Z,10.93
2019-05-18T00:31:46.311Z,10.53
2019-05-18T00:34:16.073Z,9.73
2019-05-18T00:36:45.926Z,9.20
2019-05-18T00:39:16.135Z,9.60
2019-05-18T00:41:45.897Z,9.57
2019-05-18T00:44:18.801Z,9.80
2019-05-18T00:46:48.539Z,9.93
2019-05-18T00:49:18.318Z,10.00
2019-05-18T00:51:48.089Z,10.03
2019-05-18T00:54:20.219Z,9.50
2019-05-18T00:56:51.694Z,9.70
2019-05-18T00:59:23.852Z,10.07
2019-05-18T01:01:53.520Z,10.00
2019-05-18T01:04:23.320Z,9.67
2019-05-18T01:06:53.090Z,10.83
2019-05-18T01:09:22.841Z,9.77
2019-05-18T01:11:52.639Z,10.27
2019-05-18T01:14:22.423Z,9.63
2019-05-18T01:16:53.102Z,9.97
2019-05-18T01:19:22.830Z,10.53
2019-05-18T01:21:52.744Z,10.03
2019-05-18T01:24:22.448Z,10.70
2019-05-18T01:26:52.198Z,9.87
2019-05-18T01:29:23.739Z,10.20
2019-05-18T01:31:53.497Z,10.37
2019-05-18T01:34:23.233Z,10.33
2019-05-18T01:36:53.010Z,10.03
2019-05-18T01:39:22.784Z,11.17
2019-05-18T01:41:52.520Z,10.17
2019-05-18T01:44:22.289Z,10.10
2019-05-18T01:46:52.096Z,11.23
2019-05-18T01:49:21.831Z,10.33
2019-05-18T01:51:51.606Z,10.77
2019-05-18T01:54:21.345Z,11.00
2019-05-18T01:56:51.081Z,10.83
2019-05-18T01:59:20.919Z,10.90
2019-05-18T02:01:50.677Z,11.83
2019-05-18T02:04:20.741Z,11.90
2019-05-18T02:06:50.527Z,11.50
2019-05-18T02:09:20.333Z,10.73
2019-05-18T02:11:51.001Z,11.03
2019-05-18T02:14:20.845Z,10.87
2019-05-18T02:16:50.714Z,11.70
2019-05-18T02:19:20.469Z,11.77
2019-05-18T02:21:50.396Z,10.57
2019-05-18T02:24:20.098Z,11.40
2019-05-18T02:26:49.838Z,11.50
2019-05-18T02:29:19.688Z,12.37
2019-05-18T02:31:49.453Z,11.00
2019-05-18T02:34:19.188Z,10.57
2019-05-18T02:36:49.036Z,10.40
2019-05-18T02:39:19.242Z,10.40
2019-05-18T02:41:49.006Z,11.60
2019-05-18T02:44:22.028Z,11.27
2019-05-18T02:46:52.230Z,11.20
2019-05-18T02:49:21.985Z,11.37
2019-05-18T02:51:51.800Z,11.07
2019-05-18T02:54:21.651Z,10.77
2019-05-18T02:56:51.387Z,10.80
2019-05-18T02:59:23.625Z,11.20
2019-05-18T03:01:55.912Z,11.53
2019-05-18T03:04:27.330Z,10.93
2019-05-18T03:06:57.116Z,10.47
2019-05-18T03:09:26.843Z,9.97
2019-05-18T03:11:56.687Z,10.13
2019-05-18T03:14:28.799Z,10.30
2019-05-18T03:16:58.530Z,10.93
2019-05-18T03:19:28.281Z,10.60
2019-05-18T03:22:01.362Z,12.97
2019-05-18T03:24:34.309Z,11.13
2019-05-18T03:27:04.054Z,10.90
2019-05-18T03:29:33.872Z,12.47
2019-05-18T03:32:03.799Z,11.03
2019-05-18T03:34:33.576Z,11.50
2019-05-18T03:37:03.374Z,11.77
2019-05-18T03:39:33.194Z,11.43
2019-05-18T03:42:03.029Z,10.30
2019-05-18T03:44:33.623Z,10.27
2019-05-18T03:47:05.170Z,10.60
2019-05-18T03:49:37.496Z,11.03
2019-05-18T03:52:09.569Z,10.03
2019-05-18T03:54:41.175Z,10.10
2019-05-18T03:57:13.013Z,10.30
2019-05-18T03:59:45.525Z,10.00
2019-05-18T04:02:15.380Z,9.83
2019-05-18T04:04:45.925Z,10.53
2019-05-18T04:07:16.176Z,9.90
2019-05-18T04:09:47.573Z,10.03
2019-05-18T04:12:17.327Z,9.73
2019-05-18T04:14:47.049Z,10.17
2019-05-18T04:17:20.977Z,9.93
2019-05-18T04:19:50.779Z,10.47
2019-05-18T04:22:20.573Z,10.37
2019-05-18T04:24:50.326Z,9.70
2019-05-18T04:27:23.885Z,9.27
2019-05-18T04:29:55.242Z,9.33
2019-05-18T04:32:27.342Z,9.13
2019-05-18T04:34:57.385Z,8.83
2019-05-18T04:37:27.188Z,9.40
2019-05-18T04:39:56.944Z,15.97
2019-05-18T04:42:26.925Z,76.73
2019-05-18T04:44:57.001Z,34.57
2019-05-18T04:47:26.749Z,30.00
2019-05-18T04:50:05.239Z,17.27
2019-05-18T04:52:28.034Z,16.93
2019-05-18T04:54:57.809Z,15.60
2019-05-18T04:57:27.665Z,14.00
2019-05-18T04:59:57.494Z,12.83
2019-05-18T05:02:27.330Z,11.43
2019-05-18T05:04:57.144Z,10.10
2019-05-18T05:07:26.928Z,10.10
2019-05-18T05:09:56.868Z,10.37
2019-05-18T05:12:26.903Z,10.57
2019-05-18T05:14:56.704Z,12.90
2019-05-18T05:17:26.456Z,50.10
2019-05-18T05:19:56.260Z,16.57
2019-05-18T05:22:26.090Z,11.27
2019-05-18T05:24:58.418Z,11.17
2019-05-18T05:27:28.281Z,10.50
2019-05-18T05:29:58.184Z,10.83
2019-05-18T05:32:28.176Z,11.37
2019-05-18T05:34:58.935Z,11.60
2019-05-18T05:37:28.745Z,10.97
2019-05-18T05:39:58.559Z,12.10
2019-05-18T05:42:28.363Z,11.83
2019-05-18T05:44:58.191Z,11.73
2019-05-18T05:47:27.949Z,10.77
2019-05-18T05:49:57.816Z,12.30
2019-05-18T05:52:27.662Z,12.57
2019-05-18T05:54:57.886Z,11.70
2019-05-18T05:57:28.083Z,12.80
2019-05-18T06:00:00.943Z,12.67
2019-05-18T06:02:31.488Z,11.73
2019-05-18T06:05:01.144Z,12.23
2019-05-18T06:07:30.941Z,12.90
2019-05-18T06:10:01.124Z,83.10
2019-05-18T06:12:31.020Z,31.00
2019-05-18T06:15:00.803Z,13.87
2019-05-18T06:17:30.610Z,13.23
2019-05-18T06:20:00.381Z,13.10
2019-05-18T06:22:30.182Z,12.17
2019-05-18T06:24:59.932Z,13.20
2019-05-18T06:27:29.810Z,13.10
2019-05-18T06:29:59.634Z,14.10
2019-05-18T06:32:29.384Z,12.77
2019-05-18T06:34:59.161Z,12.97
2019-05-18T06:37:28.956Z,14.60
2019-05-18T06:39:58.846Z,13.80
2019-05-18T06:42:28.656Z,13.50
2019-05-18T06:44:59.371Z,13.77
2019-05-18T06:47:29.129Z,13.53
2019-05-18T06:49:58.887Z,13.03
2019-05-18T06:52:31.763Z,14.03
2019-05-18T06:55:02.191Z,14.77
2019-05-18T06:57:32.285Z,13.90
2019-05-18T07:00:04.175Z,14.30
2019-05-18T07:02:34.973Z,13.67
2019-05-18T07:05:06.041Z,13.40
2019-05-18T07:07:35.878Z,12.93
2019-05-18T07:10:07.049Z,12.93
2019-05-18T07:12:36.883Z,13.10
2019-05-18T07:15:08.382Z,12.77
2019-05-18T07:17:38.996Z,15.43
2019-05-18T07:20:11.814Z,31.53
2019-05-18T07:22:42.018Z,13.43
2019-05-18T07:25:12.608Z,12.50
2019-05-18T07:27:44.160Z,12.73
2019-05-18T07:30:15.697Z,13.83
2019-05-18T07:32:45.642Z,13.67
2019-05-18T07:35:15.843Z,13.60
2019-05-18T07:37:45.566Z,12.77
2019-05-18T07:40:15.326Z,12.40
2019-05-18T07:42:45.367Z,11.33
2019-05-18T07:45:15.374Z,12.07
2019-05-18T07:47:45.144Z,11.30
2019-05-18T07:50:15.067Z,11.33
2019-05-18T07:52:44.817Z,14.93
2019-05-18T07:55:15.025Z,15.47
2019-05-18T07:57:44.895Z,11.27
2019-05-18T08:00:15.345Z,14.63
2019-05-18T08:02:46.084Z,12.17
2019-05-18T08:05:16.725Z,11.97
2019-05-18T08:07:46.645Z,12.23
2019-05-18T08:10:19.507Z,11.50
2019-05-18T08:12:49.264Z,12.33
2019-05-18T08:15:20.245Z,11.33
2019-05-18T08:17:50.957Z,15.73
2019-05-18T08:20:20.888Z,37.40
2019-05-18T08:22:52.077Z,11.67
2019-05-18T08:25:21.936Z,18.07
2019-05-18T08:27:51.809Z,20.17
2019-05-18T08:30:21.460Z,12.60
2019-05-18T08:32:51.298Z,12.63
2019-05-18T08:35:20.937Z,13.10
2019-05-18T08:37:50.624Z,12.27
2019-05-18T08:40:21.393Z,11.83
2019-05-18T08:42:54.294Z,13.27
2019-05-18T08:45:24.062Z,14.20
2019-05-18T08:47:53.876Z,16.83
2019-05-18T08:50:23.533Z,16.90
2019-05-18T08:52:53.316Z,18.87
2019-05-18T08:55:23.083Z,17.20
2019-05-18T08:57:52.724Z,15.27
2019-05-18T09:00:23.131Z,14.97
2019-05-18T09:02:52.961Z,12.93
2019-05-18T09:05:22.787Z,12.50
2019-05-18T09:07:52.493Z,13.80
2019-05-18T09:10:22.353Z,13.13
2019-05-18T09:12:52.066Z,12.80
2019-05-18T09:15:21.875Z,12.20
2019-05-18T09:17:51.662Z,12.20
2019-05-18T09:20:21.399Z,12.17
2019-05-18T09:22:51.172Z,18.53
2019-05-18T09:25:20.971Z,12.80
2019-05-18T09:27:50.855Z,13.33
2019-05-18T09:30:23.070Z,12.60
2019-05-18T09:32:52.850Z,12.40
2019-05-18T09:35:22.648Z,12.40
2019-05-18T09:37:52.422Z,12.50
2019-05-18T09:40:22.284Z,13.60
2019-05-18T09:42:52.083Z,12.37
2019-05-18T09:45:24.654Z,13.30
2019-05-18T09:47:54.462Z,12.27
2019-05-18T09:50:24.281Z,11.57
2019-05-18T09:52:53.959Z,11.90
2019-05-18T09:55:23.728Z,12.03
2019-05-18T09:57:53.496Z,12.63
2019-05-18T10:00:23.544Z,12.33
2019-05-18T10:02:54.764Z,13.20
2019-05-18T10:05:24.507Z,12.77
2019-05-18T10:07:54.282Z,13.63
2019-05-18T10:10:24.052Z,14.00
2019-05-18T10:12:53.807Z,13.70
2019-05-18T10:15:24.430Z,15.03
2019-05-18T10:17:58.405Z,16.53
2019-05-18T10:20:28.140Z,20.53
2019-05-18T10:23:12.419Z,18.03
2019-05-18T10:25:32.782Z,19.80
2019-05-18T10:28:06.815Z,17.40
2019-05-18T10:30:38.129Z,17.77
2019-05-18T10:33:09.909Z,20.60
2019-05-18T10:35:40.775Z,19.23
2019-05-18T10:38:12.990Z,24.57
2019-05-18T10:40:42.870Z,25.83
2019-05-18T10:43:12.650Z,19.97
2019-05-18T10:45:45.215Z,21.53
2019-05-18T10:48:15.477Z,20.30
2019-05-18T10:50:45.362Z,21.70
2019-05-18T10:53:27.871Z,23.23
2019-05-18T10:55:47.530Z,20.70
2019-05-18T10:58:17.330Z,21.40
2019-05-18T11:00:48.603Z,23.90
2019-05-18T11:03:18.394Z,23.20
2019-05-18T11:05:48.186Z,22.93
2019-05-18T11:08:17.965Z,19.70
2019-05-18T11:10:47.749Z,20.50
2019-05-18T11:13:17.561Z,20.43
2019-05-18T11:15:47.433Z,21.43
2019-05-18T11:18:17.236Z,26.10
2019-05-18T11:20:47.067Z,29.40
2019-05-18T11:23:16.893Z,22.83
2019-05-18T11:25:46.712Z,22.37
2019-05-18T11:28:16.505Z,23.57
2019-05-18T11:30:46.305Z,23.97
2019-05-18T11:33:16.074Z,23.97
2019-05-18T11:35:45.928Z,24.20
2019-05-18T11:38:15.770Z,37.77
2019-05-18T11:40:45.531Z,22.33
2019-05-18T11:43:15.393Z,22.43
2019-05-18T11:45:45.196Z,25.77
2019-05-18T11:48:14.991Z,94.53
2019-05-18T11:50:44.928Z,47.10
2019-05-18T11:53:14.739Z,24.70
2019-05-18T11:55:44.505Z,24.33
2019-05-18T11:58:14.409Z,23.33
2019-05-18T12:00:44.186Z,23.77
2019-05-18T12:03:13.988Z,24.07
2019-05-18T12:05:43.949Z,24.33
2019-05-18T12:08:13.737Z,25.73
2019-05-18T12:10:43.486Z,24.50
2019-05-18T12:13:13.376Z,25.03
2019-05-18T12:15:43.143Z,25.50
2019-05-18T12:18:12.926Z,22.53
2019-05-18T12:20:43.243Z,23.87
2019-05-18T12:23:13.054Z,24.50
2019-05-18T12:25:42.942Z,26.63
2019-05-18T12:28:13.042Z,22.93
2019-05-18T12:30:42.883Z,22.20
2019-05-18T12:33:12.675Z,23.90
2019-05-18T12:35:42.577Z,23.47
2019-05-18T12:38:12.393Z,25.30
2019-05-18T12:40:42.218Z,25.30
2019-05-18T12:43:14.778Z,24.00
2019-05-18T12:45:44.560Z,24.37
2019-05-18T12:48:15.240Z,24.60
2019-05-18T12:50:44.975Z,43.43
2019-05-18T12:53:17.539Z,40.60
2019-05-18T12:55:46.257Z,28.70
2019-05-18T12:58:16.094Z,27.17
2019-05-18T13:00:45.888Z,42.97
2019-05-18T13:03:15.663Z,31.13
2019-05-18T13:05:45.490Z,27.97
2019-05-18T13:08:15.275Z,24.87
2019-05-18T13:10:45.069Z,25.47
2019-05-18T13:13:14.889Z,28.30
2019-05-18T13:15:44.715Z,26.47
2019-05-18T13:18:14.503Z,25.63
2019-05-18T13:20:44.297Z,26.63
2019-05-18T13:23:14.091Z,24.80
2019-05-18T13:25:43.755Z,25.40
2019-05-18T13:28:13.576Z,24.80
2019-05-18T13:30:43.390Z,61.37
2019-05-18T13:33:13.198Z,27.17
2019-05-18T13:35:45.501Z,30.03
2019-05-18T13:38:14.595Z,27.40
2019-05-18T13:40:44.382Z,31.57
2019-05-18T13:43:14.271Z,29.17
2019-05-18T13:45:44.109Z,25.47
2019-05-18T13:48:13.938Z,27.70
2019-05-18T13:50:44.822Z,23.57
2019-05-18T13:53:14.877Z,25.10
2019-05-18T13:55:44.624Z,24.73
2019-05-18T13:58:14.472Z,25.77
2019-05-18T14:00:44.270Z,24.97
2019-05-18T14:03:14.128Z,26.70
2019-05-18T14:05:44.000Z,24.13
2019-05-18T14:08:15.635Z,23.63
2019-05-18T14:10:47.329Z,37.47
2019-05-18T14:13:17.174Z,26.23
2019-05-18T14:15:46.942Z,25.07
2019-05-18T14:18:16.723Z,25.43
2019-05-18T14:20:46.579Z,24.60
2019-05-18T14:23:16.558Z,23.80
2019-05-18T14:25:47.879Z,24.53
2019-05-18T14:28:17.677Z,25.60
2019-05-18T14:30:47.845Z,23.40
2019-05-18T14:33:17.633Z,24.63
2019-05-18T14:35:47.473Z,26.60
2019-05-18T14:38:17.384Z,28.90
2019-05-18T14:40:47.252Z,25.87
2019-05-18T14:43:18.403Z,26.30
2019-05-18T14:45:49.321Z,25.20
2019-05-18T14:48:19.486Z,23.90
2019-05-18T14:50:49.762Z,23.73
2019-05-18T14:53:20.571Z,24.97
2019-05-18T14:55:50.452Z,24.27
2019-05-18T14:58:20.575Z,22.73
2019-05-18T15:00:50.393Z,21.80
2019-05-18T15:03:20.189Z,22.57
2019-05-18T15:05:50.055Z,22.40
2019-05-18T15:08:19.850Z,21.57
2019-05-18T15:10:49.908Z,21.33
2019-05-18T15:13:19.722Z,22.23
2019-05-18T15:15:49.525Z,24.90
2019-05-18T15:18:19.447Z,22.33
2019-05-18T15:20:49.271Z,21.03
2019-05-18T15:23:19.147Z,21.73
2019-05-18T15:25:51.163Z,23.00
2019-05-18T15:28:21.523Z,24.37
2019-05-18T15:30:52.340Z,50.00
2019-05-18T15:33:22.143Z,20.23
2019-05-18T15:35:52.331Z,21.97
2019-05-18T15:38:22.100Z,22.13
2019-05-18T15:40:51.907Z,22.93
2019-05-18T15:43:21.796Z,22.70
2019-05-18T15:45:51.593Z,21.03
2019-05-18T15:48:21.450Z,20.00
2019-05-18T15:50:51.403Z,19.33
2019-05-18T15:53:21.234Z,19.87
2019-05-18T15:56:04.830Z,19.73
2019-05-18T15:58:22.618Z,20.47
2019-05-18T16:00:52.518Z,21.33
2019-05-18T16:03:22.274Z,22.50
2019-05-18T16:05:52.153Z,21.27
2019-05-18T16:08:21.926Z,22.23
2019-05-18T16:10:51.738Z,22.67
2019-05-18T16:13:21.541Z,22.00
2019-05-18T16:15:51.335Z,23.67
2019-05-18T16:18:21.233Z,22.10
2019-05-18T16:20:51.087Z,21.93
2019-05-18T16:23:20.869Z,23.27
2019-05-18T16:25:50.728Z,36.13
2019-05-18T16:28:20.550Z,27.57
2019-05-18T16:30:50.392Z,22.13
2019-05-18T16:33:20.195Z,23.73
2019-05-18T16:35:50.045Z,22.33
2019-05-18T16:38:19.932Z,22.67
2019-05-18T16:40:49.745Z,23.20
2019-05-18T16:43:19.654Z,23.80
2019-05-18T16:45:49.444Z,22.33
2019-05-18T16:48:19.215Z,22.07
2019-05-18T16:50:49.072Z,22.53
2019-05-18T16:53:18.906Z,23.27
2019-05-18T16:55:48.707Z,23.83
2019-05-18T16:58:18.627Z,23.43
2019-05-18T17:00:48.684Z,23.47
2019-05-18T17:03:19.027Z,23.80
2019-05-18T17:05:48.858Z,23.60
2019-05-18T17:08:18.673Z,23.50
2019-05-18T17:10:48.502Z,23.97
2019-05-18T17:13:18.399Z,24.77
2019-05-18T17:15:48.223Z,24.07
2019-05-18T17:18:18.047Z,22.17
2019-05-18T17:20:47.829Z,23.27
2019-05-18T17:23:17.616Z,22.57
2019-05-18T17:25:47.304Z,23.17
2019-05-18T17:28:20.227Z,22.13
2019-05-18T17:30:50.032Z,22.50
2019-05-18T17:33:19.833Z,27.03
2019-05-18T17:35:59.745Z,31.00
2019-05-18T17:38:21.204Z,26.63
2019-05-18T17:40:50.985Z,24.57
2019-05-18T17:43:22.950Z,29.60
2019-05-18T17:45:52.806Z,29.67
2019-05-18T17:48:22.929Z,30.03
2019-05-18T17:50:52.815Z,26.63
2019-05-18T17:53:22.658Z,28.60
2019-05-18T17:55:52.472Z,29.50
2019-05-18T17:58:22.333Z,28.43
2019-05-18T18:00:54.546Z,27.43
2019-05-18T18:03:24.527Z,35.43
2019-05-18T18:05:54.378Z,35.10
2019-05-18T18:08:24.183Z,29.90
2019-05-18T18:10:55.484Z,35.07
2019-05-18T18:13:25.322Z,47.93
2019-05-18T18:15:55.163Z,49.70
2019-05-18T18:18:24.981Z,37.53
2019-05-18T18:20:54.682Z,31.20
2019-05-18T18:23:24.512Z,84.67
2019-05-18T18:25:54.414Z,41.67
2019-05-18T18:28:24.963Z,33.83
2019-05-18T18:30:55.272Z,28.67
2019-05-18T18:33:25.085Z,26.77
2019-05-18T18:35:54.938Z,28.03
2019-05-18T18:38:24.740Z,27.17
2019-05-18T18:40:54.565Z,25.67
2019-05-18T18:43:24.511Z,26.33
2019-05-18T18:45:54.318Z,27.57
2019-05-18T18:48:26.408Z,26.03
2019-05-18T18:50:55.689Z,26.77
2019-05-18T18:53:25.555Z,27.33
2019-05-18T18:55:55.600Z,28.23
2019-05-18T18:58:27.349Z,41.37
2019-05-18T19:00:57.577Z,57.53
2019-05-18T19:03:27.708Z,101.67
2019-05-18T19:05:58.750Z,65.10
2019-05-18T19:08:37.263Z,58.50
2019-05-18T19:11:08.401Z,93.40
2019-05-18T19:13:38.662Z,50.20
2019-05-18T19:16:08.509Z,40.93
2019-05-18T19:18:39.326Z,38.63
2019-05-18T19:21:10.247Z,40.30
2019-05-18T19:23:40.450Z,37.73
2019-05-18T19:26:11.389Z,32.50
2019-05-18T19:28:42.289Z,31.83
2019-05-18T19:31:12.235Z,31.40
2019-05-18T19:33:42.154Z,30.30
2019-05-18T19:36:12.024Z,31.33
2019-05-18T19:38:43.022Z,30.53
2019-05-18T19:41:15.932Z,31.90
2019-05-18T19:43:46.155Z,30.27
2019-05-18T19:46:15.929Z,30.50
2019-05-18T19:48:48.044Z,31.17
2019-05-18T19:51:17.877Z,31.00
2019-05-18T19:53:51.928Z,32.03
2019-05-18T19:56:22.809Z,31.07
2019-05-18T19:58:53.088Z,31.33
2019-05-18T20:01:22.989Z,32.57
2019-05-18T20:03:54.087Z,32.77
2019-05-18T20:06:24.370Z,32.37
2019-05-18T20:08:54.134Z,32.07
2019-05-18T20:11:24.151Z,30.80
2019-05-18T20:13:57.263Z,32.43
2019-05-18T20:16:28.387Z,31.30
2019-05-18T20:18:58.206Z,32.17
2019-05-18T20:21:38.887Z,32.00
2019-05-18T20:24:09.958Z,34.27
2019-05-18T20:26:44.377Z,33.57
2019-05-18T20:29:14.272Z,32.27
2019-05-18T20:31:44.184Z,35.17
2019-05-18T20:34:16.785Z,33.87
2019-05-18T20:36:48.708Z,37.00
2019-05-18T20:39:19.626Z,35.23
2019-05-18T20:41:50.540Z,41.17
2019-05-18T20:44:20.838Z,38.53
2019-05-18T20:46:51.175Z,36.03
2019-05-18T20:49:20.885Z,35.13
2019-05-18T20:51:50.719Z,33.47
2019-05-18T20:54:20.558Z,33.77
2019-05-18T20:56:54.818Z,33.57
2019-05-18T20:59:28.567Z,33.93
2019-05-18T21:01:58.464Z,33.23
2019-05-18T21:04:28.282Z,34.63
2019-05-18T21:06:58.245Z,33.23
2019-05-18T21:09:29.205Z,33.57
2019-05-18T21:11:59.087Z,33.47
2019-05-18T21:14:29.905Z,33.80
2019-05-18T21:16:59.699Z,33.13
2019-05-18T21:19:29.552Z,33.33
2019-05-18T21:21:59.823Z,37.40
2019-05-18T21:24:32.013Z,40.93
2019-05-18T21:27:02.140Z,34.93
2019-05-18T21:29:31.968Z,34.10
2019-05-18T21:32:01.856Z,37.07
2019-05-18T21:34:31.630Z,36.20
2019-05-18T21:37:01.416Z,34.67
2019-05-18T21:39:31.200Z,34.63
2019-05-18T21:42:00.991Z,37.30
2019-05-18T21:44:30.813Z,35.50
2019-05-18T21:47:00.625Z,37.87
2019-05-18T21:49:30.468Z,39.67
2019-05-18T21:52:00.309Z,36.93
2019-05-18T21:54:30.123Z,37.73
2019-05-18T21:57:00.840Z,36.87
2019-05-18T21:59:30.691Z,37.07
2019-05-18T22:02:00.494Z,35.00
2019-05-18T22:04:30.329Z,33.97
2019-05-18T22:07:00.312Z,37.10
2019-05-18T22:09:30.189Z,36.57
2019-05-18T22:12:02.020Z,35.50
2019-05-18T22:14:31.881Z,36.87
2019-05-18T22:17:01.675Z,37.37
2019-05-18T22:19:34.160Z,35.30
2019-05-18T22:22:03.992Z,38.87
2019-05-18T22:24:34.159Z,36.60
2019-05-18T22:27:03.930Z,39.13
2019-05-18T22:29:33.748Z,34.77
2019-05-18T22:32:03.549Z,36.73
2019-05-18T22:34:33.333Z,35.23
2019-05-18T22:37:03.150Z,34.87
2019-05-18T22:39:32.940Z,36.63
2019-05-18T22:42:02.824Z,37.77
2019-05-18T22:44:32.644Z,35.10
2019-05-18T22:47:02.449Z,34.57
2019-05-18T22:49:32.218Z,35.83
2019-05-18T22:52:02.024Z,34.37
2019-05-18T22:54:31.835Z,34.60
2019-05-18T22:57:01.712Z,35.93
2019-05-18T22:59:31.529Z,39.57
2019-05-18T23:02:01.337Z,37.43
2019-05-18T23:04:31.164Z,34.57
2019-05-18T23:07:01.053Z,37.63
2019-05-18T23:09:30.827Z,38.20
2019-05-18T23:12:00.621Z,34.70
2019-05-18T23:14:30.488Z,35.53
2019-05-18T23:17:00.305Z,38.00
2019-05-18T23:19:30.105Z,37.70
2019-05-18T23:21:59.926Z,41.07
2019-05-18T23:24:29.684Z,37.90
2019-05-18T23:26:59.489Z,40.60
2019-05-18T23:29:29.304Z,41.07
2019-05-18T23:31:59.088Z,40.37
2019-05-18T23:34:28.865Z,40.77
2019-05-18T23:36:58.672Z,40.43
2019-05-18T23:39:28.444Z,44.03
2019-05-18T23:41:58.233Z,41.43
2019-05-18T23:44:28.063Z,40.07
2019-05-18T23:46:57.829Z,38.47
2019-05-18T23:49:27.680Z,38.83
2019-05-18T23:51:57.895Z,39.07
2019-05-18T23:54:27.682Z,38.53
2019-05-18T23:56:57.465Z,37.53
2019-05-18T23:59:27.283Z,37.43
